Time;durP1;ratioP1;P1;durP2;ratioP2;P2;SDS_P1;SDS_P2;PMS_P1;PMS_P2;Temp;Humidity;BMP_temperature;BMP_pressure;BME280_temperature;BME280_humidity;BME280_pressure;Samples;Min_cycle;Max_cycle;Signal;HPM_P1;HPM_P2
2023/06/07 00:00:08;;;;;;;8.13;7.63;;;;;;;12.04;100.00;97046.38;5047203;28;20647;-65
2023/06/07 00:02:36;;;;;;;9.30;8.50;;;;;;;12.05;100.00;97053.31;5027581;28;20280;-65
2023/06/07 00:05:12;;;;;;;8.23;7.63;;;;;;;12.03;100.00;97052.69;4999169;28;20835;-63
2023/06/07 00:07:41;;;;;;;8.63;7.87;;;;;;;11.94;100.00;97051.19;5047623;28;20221;-65
2023/06/07 00:10:09;;;;;;;9.50;8.80;;;;;;;11.97;100.00;97051.59;5047689;28;20195;-66
2023/06/07 00:12:38;;;;;;;9.80;9.03;;;;;;;11.97;100.00;97048.16;5024903;28;20747;-64
2023/06/07 00:15:07;;;;;;;9.70;9.00;;;;;;;11.95;100.00;97048.34;5042440;28;20957;-64
2023/06/07 00:17:37;;;;;;;9.83;9.17;;;;;;;11.92;100.00;97050.53;5029376;28;20203;-64
2023/06/07 00:20:08;;;;;;;10.07;9.37;;;;;;;11.96;100.00;97054.47;5047357;28;20231;-63
2023/06/07 00:22:37;;;;;;;9.70;9.10;;;;;;;11.90;100.00;97040.13;4993243;28;20556;-65
2023/06/07 00:25:05;;;;;;;9.57;8.87;;;;;;;11.89;100.00;97046.47;5051155;28;20241;-63
2023/06/07 00:27:33;;;;;;;9.87;9.20;;;;;;;11.82;100.00;97033.13;5042979;28;20226;-64
2023/06/07 00:30:03;;;;;;;10.30;9.60;;;;;;;11.89;100.00;97041.16;5045932;28;20665;-63
2023/06/07 00:32:32;;;;;;;9.97;9.30;;;;;;;11.88;100.00;97040.31;5040054;28;20613;-63
2023/06/07 00:34:59;;;;;;;10.30;9.50;;;;;;;11.91;100.00;97038.28;5044223;28;20226;-65
2023/06/07 00:37:27;;;;;;;9.93;9.23;;;;;;;11.89;100.00;97035.84;4992914;28;20210;-64
2023/06/07 00:39:54;;;;;;;9.83;9.10;;;;;;;11.83;100.00;97037.44;5052164;28;20268;-62
2023/06/07 00:42:22;;;;;;;10.23;9.53;;;;;;;11.78;100.00;97028.44;5052660;28;20785;-65
2023/06/07 00:44:50;;;;;;;10.27;9.57;;;;;;;11.78;100.00;97037.19;5028947;28;20302;-63
2023/06/07 00:47:19;;;;;;;10.13;9.33;;;;;;;11.73;100.00;97031.66;5052327;28;20218;-63
2023/06/07 00:49:48;;;;;;;11.00;10.03;;;;;;;11.72;100.00;97041.44;5034273;28;20557;-64
2023/06/07 00:52:16;;;;;;;10.80;10.00;;;;;;;11.74;100.00;97035.97;5053734;28;20641;-63
2023/06/07 00:54:43;;;;;;;10.80;10.10;;;;;;;11.76;100.00;97041.88;4997147;28;20214;-64
2023/06/07 00:57:11;;;;;;;11.10;10.30;;;;;;;11.72;100.00;97035.34;5051367;28;20295;-63
2023/06/07 00:59:39;;;;;;;11.80;10.87;;;;;;;11.68;100.00;97031.44;5026458;28;20219;-62
2023/06/07 01:02:06;;;;;;;10.47;9.77;;;;;;;11.62;100.00;97032.22;5053791;28;20195;-63
2023/06/07 01:04:40;;;;;;;11.20;10.40;;;;;;;11.55;100.00;97030.34;5034200;28;20223;-63
2023/06/07 01:07:08;;;;;;;10.07;9.17;;;;;;;11.57;100.00;97032.78;5055226;28;20660;-63
2023/06/07 01:09:36;;;;;;;11.73;10.83;;;;;;;11.53;100.00;97036.84;4998498;28;20276;-66
2023/06/07 01:12:06;;;;;;;11.43;10.43;;;;;;;11.51;100.00;97037.03;5054317;28;20214;-64
2023/06/07 01:14:34;;;;;;;11.23;10.43;;;;;;;11.42;100.00;97028.41;5031288;28;20268;-63
2023/06/07 01:17:02;;;;;;;11.40;10.60;;;;;;;11.55;100.00;97038.31;5050188;28;20235;-64
2023/06/07 01:19:32;;;;;;;11.43;10.63;;;;;;;11.56;100.00;97041.75;5052221;28;20294;-64
2023/06/07 01:22:03;;;;;;;12.43;11.43;;;;;;;11.50;100.00;97034.59;5034314;28;20209;-62
2023/06/07 01:24:35;;;;;;;11.80;11.00;;;;;;;11.63;100.00;97032.00;4994461;28;20230;-65
2023/06/07 01:27:04;;;;;;;13.33;12.33;;;;;;;11.68;100.00;97031.44;5045827;28;20210;-62
2023/06/07 01:29:32;;;;;;;11.90;11.10;;;;;;;11.67;100.00;97027.94;5050194;28;20199;-65
2023/06/07 01:32:03;;;;;;;12.80;11.80;;;;;;;11.71;100.00;97031.84;5031293;28;20703;-61
2023/06/07 01:34:31;;;;;;;13.77;12.67;;;;;;;11.76;100.00;97033.94;5051082;28;20255;-64
2023/06/07 01:36:58;;;;;;;12.93;11.93;;;;;;;11.75;100.00;97032.28;5032119;28;20234;-63
2023/06/07 01:39:27;;;;;;;13.97;12.87;;;;;;;11.75;100.00;97034.94;5032053;28;20453;-63
2023/06/07 01:41:57;;;;;;;12.47;11.57;;;;;;;11.72;100.00;97032.69;5017008;28;20321;-64
2023/06/07 01:44:25;;;;;;;13.20;11.90;;;;;;;11.77;100.00;97032.09;5049167;28;20309;-64
2023/06/07 01:46:52;;;;;;;12.63;11.70;;;;;;;11.77;100.00;97035.56;5029735;28;20290;-63
2023/06/07 01:49:20;;;;;;;12.67;11.73;;;;;;;11.80;100.00;97037.03;5052614;28;20770;-65
2023/06/07 01:51:47;;;;;;;14.83;12.93;;;;;;;11.80;100.00;97031.72;5031455;28;20288;-63
2023/06/07 01:54:16;;;;;;;13.50;12.60;;;;;;;11.75;100.00;97029.63;5047620;28;20310;-64
2023/06/07 01:56:48;;;;;;;13.30;12.40;;;;;;;11.84;100.00;97036.41;4997599;28;20398;-64
2023/06/07 01:59:22;;;;;;;13.73;12.63;;;;;;;11.93;100.00;97036.25;5051839;28;20649;-63
2023/06/07 02:01:56;;;;;;;13.90;12.90;;;;;;;11.94;100.00;97040.56;5029830;28;21362;-62
2023/06/07 02:04:26;;;;;;;13.90;12.90;;;;;;;12.00;100.00;97031.81;5041776;28;20227;-64
2023/06/07 02:06:55;;;;;;;13.73;12.60;;;;;;;12.06;100.00;97033.72;5024536;28;20264;-60
2023/06/07 02:09:24;;;;;;;15.23;14.03;;;;;;;12.07;100.00;97031.88;5033210;28;20272;-63
2023/06/07 02:11:52;;;;;;;13.67;12.67;;;;;;;12.18;100.00;97036.63;4996142;28;20214;-62
2023/06/07 02:14:21;;;;;;;14.83;13.63;;;;;;;12.23;100.00;97042.16;5045827;28;20219;-64
2023/06/07 02:16:49;;;;;;;13.57;12.53;;;;;;;12.27;100.00;97046.06;5054433;28;20446;-62
2023/06/07 02:19:16;;;;;;;15.47;14.17;;;;;;;12.24;100.00;97045.63;5031654;28;20681;-63
2023/06/07 02:21:44;;;;;;;14.47;13.37;;;;;;;12.34;100.00;97051.41;5031193;28;20236;-62
2023/06/07 02:24:12;;;;;;;15.20;14.03;;;;;;;12.37;100.00;97044.88;5049914;28;20591;-64
2023/06/07 02:26:40;;;;;;;15.43;14.33;;;;;;;12.44;100.00;97045.69;4994779;28;21005;-64
2023/06/07 02:29:08;;;;;;;16.27;14.93;;;;;;;12.48;100.00;97046.94;5052278;28;20730;-62
2023/06/07 02:31:37;;;;;;;15.73;14.57;;;;;;;12.52;100.00;97050.03;5046083;28;20450;-64
2023/06/07 02:34:05;;;;;;;14.70;13.60;;;;;;;12.58;100.00;97049.22;5031627;28;20227;-64
2023/06/07 02:36:33;;;;;;;14.77;13.67;;;;;;;12.61;100.00;97043.50;5052143;28;20272;-63
2023/06/07 02:39:01;;;;;;;13.77;12.77;;;;;;;12.63;100.00;97044.13;5033641;28;20290;-63
2023/06/07 02:41:29;;;;;;;15.23;13.93;;;;;;;12.66;100.00;97041.06;4999888;28;20235;-63
2023/06/07 02:43:56;;;;;;;15.23;14.13;;;;;;;12.69;100.00;97045.19;5046053;28;20227;-59
2023/06/07 02:46:24;;;;;;;15.70;14.33;;;;;;;12.75;100.00;97041.72;5045596;28;20938;-64
2023/06/07 02:48:53;;;;;;;14.73;13.63;;;;;;;12.68;100.00;97041.69;5030134;28;20222;-65
2023/06/07 02:51:21;;;;;;;15.97;14.77;;;;;;;12.76;100.00;97031.91;5047403;28;20215;-63
2023/06/07 02:53:49;;;;;;;15.20;14.10;;;;;;;12.74;100.00;97032.09;5033204;28;20250;-64
2023/06/07 02:56:17;;;;;;;15.83;14.63;;;;;;;12.81;100.00;97027.59;5049184;28;20234;-63
2023/06/07 02:58:45;;;;;;;15.17;13.93;;;;;;;12.74;100.00;97030.28;4994188;28;20207;-63
2023/06/07 03:01:14;;;;;;;14.40;13.10;;;;;;;12.74;100.00;97024.13;5046228;28;20209;-62
2023/06/07 03:03:42;;;;;;;13.80;12.80;;;;;;;12.77;100.00;97026.38;5049758;28;20246;-64
2023/06/07 03:06:11;;;;;;;16.23;14.90;;;;;;;12.72;100.00;97027.00;5025736;28;20526;-63
2023/06/07 03:08:39;;;;;;;16.37;15.17;;;;;;;12.73;100.00;97028.63;5033477;28;20234;-64
2023/06/07 03:11:07;;;;;;;15.10;14.00;;;;;;;12.83;100.00;97033.53;5052205;28;20364;-63
2023/06/07 03:13:34;;;;;;;16.13;14.83;;;;;;;12.79;100.00;97023.53;4996247;28;20223;-63
2023/06/07 03:16:02;;;;;;;15.63;14.40;;;;;;;12.82;100.00;97029.25;5046072;28;20229;-65
2023/06/07 03:18:31;;;;;;;15.50;14.13;;;;;;;12.79;100.00;97039.47;5052187;28;20203;-65
2023/06/07 03:20:58;;;;;;;15.13;13.83;;;;;;;12.91;100.00;97032.53;5030904;28;20225;-65
2023/06/07 03:23:28;;;;;;;15.67;14.37;;;;;;;12.93;100.00;97030.50;5047871;28;20246;-64
2023/06/07 03:25:58;;;;;;;15.33;14.17;;;;;;;12.95;100.00;97040.94;5027910;28;20222;-62
2023/06/07 03:28:26;;;;;;;16.07;14.93;;;;;;;12.94;100.00;97029.47;4992053;28;21099;-65
2023/06/07 03:30:53;;;;;;;15.60;14.30;;;;;;;12.92;100.00;97036.81;5048619;28;20726;-65
2023/06/07 03:33:21;;;;;;;16.27;14.97;;;;;;;12.91;100.00;97031.72;5044312;28;21149;-63
2023/06/07 03:35:49;;;;;;;16.60;15.30;;;;;;;12.95;100.00;97035.63;5051865;28;20237;-64
2023/06/07 03:38:16;;;;;;;15.60;14.40;;;;;;;13.02;100.00;97036.44;5033176;28;20420;-64
2023/06/07 03:40:45;;;;;;;15.60;14.40;;;;;;;12.96;100.00;97035.41;5024712;28;20670;-63
2023/06/07 03:43:13;;;;;;;15.60;14.40;;;;;;;13.01;100.00;97035.59;5040367;28;20200;-64
2023/06/07 03:45:40;;;;;;;15.43;14.23;;;;;;;13.11;100.00;97035.22;4996781;28;20272;-64
2023/06/07 03:48:08;;;;;;;16.47;15.17;;;;;;;13.02;100.00;97045.22;5050258;28;20406;-62
2023/06/07 03:50:36;;;;;;;17.77;16.37;;;;;;;13.09;100.00;97031.13;5053041;28;20230;-58
2023/06/07 03:53:03;;;;;;;17.30;16.00;;;;;;;13.15;100.00;97038.28;5030328;28;20337;-66
2023/06/07 03:55:31;;;;;;;16.73;15.43;;;;;;;13.25;100.00;97037.88;5020525;28;21217;-64
2023/06/07 03:58:00;;;;;;;16.20;14.90;;;;;;;13.19;100.00;97042.19;5051333;28;20300;-62
2023/06/07 04:00:27;;;;;;;16.43;15.13;;;;;;;13.22;100.00;97036.44;4990784;28;21017;-62
2023/06/07 04:02:55;;;;;;;17.13;15.93;;;;;;;13.27;100.00;97031.34;5054125;28;20253;-65
2023/06/07 04:05:25;;;;;;;18.00;16.50;;;;;;;13.34;100.00;97036.66;5051850;28;20214;-68
2023/06/07 04:07:59;;;;;;;17.17;15.77;;;;;;;13.38;100.00;97026.41;5030971;28;20640;-64
2023/06/07 04:10:27;;;;;;;16.60;15.40;;;;;;;13.38;100.00;97034.38;5025281;28;20226;-65
2023/06/07 04:12:54;;;;;;;16.43;15.13;;;;;;;13.24;100.00;97039.72;5053650;28;20298;-66
2023/06/07 04:15:23;;;;;;;16.80;15.53;;;;;;;13.17;100.00;97039.72;4979841;28;20222;-66
2023/06/07 04:17:51;;;;;;;16.40;15.13;;;;;;;13.15;100.00;97036.44;5056103;28;20292;-64
2023/06/07 04:20:19;;;;;;;17.67;16.23;;;;;;;13.09;100.00;97045.25;5053558;28;20285;-66
2023/06/07 04:22:51;;;;;;;19.17;17.33;;;;;;;13.07;100.00;97041.97;5033333;28;20200;-65
2023/06/07 04:25:21;;;;;;;18.13;16.63;;;;;;;13.05;100.00;97037.84;5045921;28;20287;-66
2023/06/07 04:27:49;;;;;;;18.43;16.73;;;;;;;13.06;100.00;97044.81;5032580;28;20229;-64
2023/06/07 04:30:18;;;;;;;19.10;17.50;;;;;;;13.06;100.00;97050.97;5051081;28;20305;-66
2023/06/07 04:32:46;;;;;;;18.97;17.57;;;;;;;13.08;100.00;97048.91;5000593;28;20214;-67
2023/06/07 04:35:14;;;;;;;19.27;17.67;;;;;;;13.14;100.00;97055.28;5054715;28;20280;-65
2023/06/07 04:37:45;;;;;;;19.33;17.73;;;;;;;13.22;100.00;97048.91;5032767;28;21354;-65
2023/06/07 04:40:13;;;;;;;19.83;18.40;;;;;;;13.36;100.00;97058.56;5048653;28;20199;-67
2023/06/07 04:42:46;;;;;;;22.03;20.13;;;;;;;13.35;100.00;97054.25;5030987;28;21107;-65
2023/06/07 04:45:14;;;;;;;21.23;19.43;;;;;;;13.39;100.00;97044.00;5046601;28;21135;-66
2023/06/07 04:47:45;;;;;;;20.87;19.23;;;;;;;13.52;100.00;97051.19;5000021;28;20389;-65
2023/06/07 04:50:16;;;;;;;21.17;19.37;;;;;;;13.77;100.00;97045.25;5050539;28;20238;-67
2023/06/07 04:52:43;;;;;;;20.20;18.70;;;;;;;13.86;100.00;97043.97;5054800;28;20218;-63
2023/06/07 04:55:14;;;;;;;19.03;17.50;;;;;;;13.86;100.00;97041.31;5052186;28;20377;-66
2023/06/07 04:57:42;;;;;;;20.77;18.97;;;;;;;13.78;100.00;97039.69;5028996;28;20999;-64
2023/06/07 05:00:14;;;;;;;19.83;18.33;;;;;;;13.80;100.00;97042.16;5048600;28;20191;-67
2023/06/07 05:02:44;;;;;;;19.60;18.17;;;;;;;13.79;100.00;97043.19;4997099;28;20237;-67
2023/06/07 05:05:13;;;;;;;21.10;19.40;;;;;;;13.78;100.00;97050.34;5051827;28;20231;-66
2023/06/07 05:07:44;;;;;;;21.70;20.00;;;;;;;13.92;100.00;97047.66;5034207;28;21238;-60
2023/06/07 05:10:11;;;;;;;20.93;19.23;;;;;;;13.98;100.00;97046.84;5049587;28;20868;-63
2023/06/07 05:12:39;;;;;;;22.00;20.10;;;;;;;13.98;100.00;97054.81;5045315;28;21516;-67
2023/06/07 05:15:08;;;;;;;20.87;19.20;;;;;;;14.06;100.00;97049.25;5032203;28;20725;-63
2023/06/07 05:17:36;;;;;;;20.27;18.70;;;;;;;14.23;100.00;97049.63;4994839;28;21986;-62
2023/06/07 05:20:10;;;;;;;21.40;19.60;;;;;;;14.40;100.00;97049.16;5057334;28;20229;-64
2023/06/07 05:22:39;;;;;;;21.37;19.50;;;;;;;14.53;100.00;97050.91;5028601;28;20873;-62
2023/06/07 05:25:10;;;;;;;22.00;20.17;;;;;;;14.58;100.00;97059.09;5052259;28;20222;-64
2023/06/07 05:27:37;;;;;;;21.20;19.40;;;;;;;14.57;100.00;97062.78;5038860;28;20217;-63
2023/06/07 05:30:07;;;;;;;21.73;19.93;;;;;;;14.66;100.00;97066.88;5028210;28;20334;-65
2023/06/07 05:32:35;;;;;;;19.37;17.80;;;;;;;14.67;100.00;97065.84;5051671;28;20202;-65
2023/06/07 05:35:04;;;;;;;20.93;19.33;;;;;;;14.61;100.00;97059.50;5000400;28;20965;-62
2023/06/07 05:37:32;;;;;;;21.23;19.53;;;;;;;14.59;100.00;97058.09;5047433;28;20425;-62
2023/06/07 05:40:00;;;;;;;20.00;18.43;;;;;;;14.76;100.00;97059.25;5019852;28;20381;-62
2023/06/07 05:42:28;;;;;;;20.20;18.57;;;;;;;14.96;100.00;97063.63;5049896;28;20877;-62
2023/06/07 05:44:56;;;;;;;20.60;19.00;;;;;;;15.18;100.00;97064.13;5030702;28;20321;-63
2023/06/07 05:47:25;;;;;;;20.33;18.73;;;;;;;15.38;100.00;97070.34;5051200;28;20209;-65
2023/06/07 05:49:53;;;;;;;19.40;17.80;;;;;;;15.67;100.00;97054.66;4999711;28;20309;-62
2023/06/07 05:52:21;;;;;;;20.17;18.57;;;;;;;15.84;100.00;97068.28;5049214;28;20227;-65
2023/06/07 05:54:49;;;;;;;19.80;18.30;;;;;;;16.01;100.00;97065.88;5028240;28;20943;-65
2023/06/07 05:57:17;;;;;;;18.10;16.80;;;;;;;16.23;100.00;97060.91;5050360;28;20202;-64
2023/06/07 05:59:46;;;;;;;19.57;17.87;;;;;;;16.58;100.00;97048.78;5045739;28;20242;-64
2023/06/07 06:02:16;;;;;;;16.93;15.73;;;;;;;17.04;100.00;97052.69;5032405;28;20636;-64
2023/06/07 06:04:44;;;;;;;17.43;16.17;;;;;;;17.46;100.00;97059.06;4998380;28;21267;-65
2023/06/07 06:07:11;;;;;;;18.13;16.70;;;;;;;17.59;100.00;97058.03;5053607;28;20203;-65
2023/06/07 06:09:41;;;;;;;19.10;17.50;;;;;;;17.74;100.00;97055.69;5024889;28;20279;-64
2023/06/07 06:12:09;;;;;;;18.70;16.90;;;;;;;16.98;100.00;97055.47;5052957;28;20199;-64
2023/06/07 06:14:37;;;;;;;18.17;16.50;;;;;;;17.64;100.00;97053.59;5044066;28;20599;-64
2023/06/07 06:17:07;;;;;;;16.87;15.67;;;;;;;17.72;100.00;97056.97;5029278;28;20260;-64
2023/06/07 06:19:34;;;;;;;17.77;16.27;;;;;;;17.56;100.00;97056.59;4996737;28;20691;-63
2023/06/07 06:22:02;;;;;;;15.90;14.77;;;;;;;17.90;100.00;97062.19;5057392;28;20244;-64
2023/06/07 06:24:30;;;;;;;17.20;15.90;;;;;;;18.03;100.00;97063.06;5050209;28;20461;-63
2023/06/07 06:26:57;;;;;;;16.60;15.40;;;;;;;17.96;100.00;97062.31;5036860;28;20757;-63
2023/06/07 06:29:25;;;;;;;16.83;15.63;;;;;;;18.48;100.00;97058.88;5046108;28;20503;-63
2023/06/07 06:31:53;;;;;;;17.17;15.87;;;;;;;18.12;100.00;97061.63;5027991;28;20244;-63
2023/06/07 06:34:23;;;;;;;17.10;15.87;;;;;;;18.30;100.00;97059.84;5050459;28;20226;-65
2023/06/07 06:36:50;;;;;;;16.70;15.47;;;;;;;18.03;100.00;97068.41;5002989;28;20305;-63
2023/06/07 06:39:18;;;;;;;16.03;14.77;;;;;;;17.82;100.00;97073.28;5048411;28;20280;-65
2023/06/07 06:41:46;;;;;;;17.30;15.90;;;;;;;17.91;100.00;97081.78;5023944;28;20209;-65
2023/06/07 06:44:13;;;;;;;16.30;15.00;;;;;;;18.18;100.00;97067.91;5045567;28;20222;-65
2023/06/07 06:46:41;;;;;;;16.13;14.93;;;;;;;17.99;100.00;97070.72;5026968;28;21445;-59
2023/06/07 06:49:09;;;;;;;15.13;13.93;;;;;;;17.96;100.00;97073.03;5054732;28;20199;-65
2023/06/07 06:51:41;;;;;;;16.43;15.13;;;;;;;18.08;100.00;97073.88;4997501;28;20843;-64
2023/06/07 06:54:12;;;;;;;16.77;15.50;;;;;;;17.65;100.00;97071.31;5050443;28;20610;-66
2023/06/07 06:56:40;;;;;;;17.17;15.90;;;;;;;17.88;100.00;97072.34;5024740;28;20928;-63
2023/06/07 06:59:07;;;;;;;17.77;16.07;;;;;;;17.99;100.00;97069.88;5045244;28;20199;-65
2023/06/07 07:01:46;;;;;;;16.37;15.07;;;;;;;17.56;100.00;97074.56;5046297;28;20405;-64
2023/06/07 07:04:15;;;;;;;16.27;15.07;;;;;;;17.70;100.00;97072.47;5031116;28;20640;-65
2023/06/07 07:06:44;;;;;;;16.43;15.13;;;;;;;17.69;100.00;97081.56;4994551;28;22988;-64
2023/06/07 07:09:13;;;;;;;16.97;15.67;;;;;;;17.69;100.00;97077.00;5046849;28;20298;-65
2023/06/07 07:11:40;;;;;;;17.07;15.77;;;;;;;17.85;100.00;97078.16;5006835;28;21135;-63
2023/06/07 07:14:08;;;;;;;17.10;15.63;;;;;;;17.95;100.00;97080.28;5046526;28;20230;-65
2023/06/07 07:16:36;;;;;;;17.40;16.03;;;;;;;17.75;100.00;97081.44;5025863;28;20288;-64
2023/06/07 07:19:05;;;;;;;16.30;15.10;;;;;;;18.08;100.00;97079.25;5031903;28;20209;-65
2023/06/07 07:21:33;;;;;;;16.83;15.57;;;;;;;18.07;100.00;97081.09;5048477;28;20413;-65
2023/06/07 07:24:02;;;;;;;16.07;14.77;;;;;;;18.35;100.00;97076.03;4998938;28;20304;-60
2023/06/07 07:26:29;;;;;;;15.50;14.40;;;;;;;18.64;100.00;97078.75;5043725;28;20474;-64
2023/06/07 07:28:57;;;;;;;17.03;15.63;;;;;;;18.74;100.00;97073.59;5026095;28;20234;-65
2023/06/07 07:31:25;;;;;;;16.87;15.53;;;;;;;18.45;100.00;97073.59;5050022;28;20223;-64
2023/06/07 07:33:52;;;;;;;14.30;13.20;;;;;;;18.39;100.00;97071.03;5018677;28;20697;-63
2023/06/07 07:36:21;;;;;;;14.20;13.23;;;;;;;18.63;100.00;97072.59;5035818;28;20490;-64
2023/06/07 07:38:48;;;;;;;13.47;12.57;;;;;;;18.37;100.00;97072.06;4994082;28;20337;-65
2023/06/07 07:41:18;;;;;;;13.57;12.53;;;;;;;18.30;100.00;97066.03;5030571;28;20455;-63
2023/06/07 07:43:46;;;;;;;13.80;12.60;;;;;;;18.11;100.00;97070.72;5026917;28;20223;-65
2023/06/07 07:46:13;;;;;;;13.73;12.60;;;;;;;18.54;100.00;97075.88;5046386;28;20394;-64
2023/06/07 07:48:41;;;;;;;13.37;12.27;;;;;;;18.88;100.00;97065.25;5050853;28;20601;-65
2023/06/07 07:51:09;;;;;;;12.70;11.80;;;;;;;19.13;100.00;97066.78;5025766;28;20314;-64
2023/06/07 07:53:36;;;;;;;12.43;11.53;;;;;;;19.23;100.00;97064.28;5051818;28;20246;-64
2023/06/07 07:56:04;;;;;;;12.90;11.90;;;;;;;19.50;100.00;97066.31;4978689;28;20272;-65
2023/06/07 07:58:33;;;;;;;13.37;12.17;;;;;;;19.36;100.00;97066.66;5050480;28;20264;-65
2023/06/07 08:01:01;;;;;;;11.50;10.77;;;;;;;19.40;100.00;97063.47;5045087;28;20714;-65
2023/06/07 08:03:29;;;;;;;10.90;10.20;;;;;;;19.39;100.00;97054.63;5054488;28;20354;-63
2023/06/07 08:05:57;;;;;;;10.87;10.17;;;;;;;19.12;100.00;97057.09;5022322;28;20202;-65
2023/06/07 08:08:25;;;;;;;11.70;10.70;;;;;;;19.01;100.00;97053.44;5051729;28;20474;-64
2023/06/07 08:10:52;;;;;;;10.13;9.47;;;;;;;18.80;100.00;97048.50;4985989;28;20219;-64
2023/06/07 08:13:20;;;;;;;10.63;9.80;;;;;;;19.12;100.00;97047.19;5034572;28;20601;-66
2023/06/07 08:15:49;;;;;;;10.97;10.27;;;;;;;19.56;100.00;97048.41;5028470;28;20717;-65
2023/06/07 08:18:17;;;;;;;10.23;9.47;;;;;;;19.50;100.00;97050.19;5049613;28;20421;-64
2023/06/07 08:20:45;;;;;;;10.70;10.00;;;;;;;19.58;100.00;97047.13;5050904;28;20631;-63
2023/06/07 08:23:12;;;;;;;10.17;9.47;;;;;;;19.66;100.00;97041.31;5019393;28;21006;-63
2023/06/07 08:25:40;;;;;;;10.50;9.80;;;;;;;19.60;100.00;97047.69;4997070;28;20211;-65
2023/06/07 08:28:08;;;;;;;8.70;8.10;;;;;;;19.85;100.00;97046.41;5022703;28;20380;-65
2023/06/07 08:30:36;;;;;;;9.73;8.93;;;;;;;19.84;100.00;97052.06;5044929;28;20285;-64
2023/06/07 08:33:05;;;;;;;9.27;8.67;;;;;;;19.75;100.00;97046.28;5041506;28;20223;-66
2023/06/07 08:35:33;;;;;;;8.30;7.70;;;;;;;20.43;100.00;97048.81;5051758;28;20214;-66
2023/06/07 08:38:01;;;;;;;8.83;8.23;;;;;;;20.39;100.00;97045.00;5028021;28;20301;-66
2023/06/07 08:40:30;;;;;;;9.57;8.97;;;;;;;21.06;100.00;97043.06;4993034;28;20204;-66
2023/06/07 08:42:57;;;;;;;7.90;7.50;;;;;;;20.68;100.00;97047.50;5022375;28;20214;-66
2023/06/07 08:45:25;;;;;;;8.80;8.20;;;;;;;20.33;100.00;97036.06;5048292;28;20517;-64
2023/06/07 08:47:54;;;;;;;7.93;7.43;;;;;;;19.73;100.00;97041.16;5030786;28;20317;-66
2023/06/07 08:50:24;;;;;;;8.40;7.80;;;;;;;20.49;100.00;97045.13;5047817;28;20206;-66
2023/06/07 08:52:54;;;;;;;7.37;6.60;;;;;;;20.66;100.00;97045.03;5024335;28;20227;-65
2023/06/07 08:55:22;;;;;;;8.07;7.57;;;;;;;20.87;100.00;97044.47;4990609;28;20331;-65
2023/06/07 08:57:52;;;;;;;7.33;6.87;;;;;;;20.67;100.00;97040.50;5030927;28;20218;-65
2023/06/07 09:00:22;;;;;;;7.63;7.13;;;;;;;20.78;100.00;97044.91;5049219;28;20602;-64
2023/06/07 09:02:52;;;;;;;7.67;7.17;;;;;;;20.93;100.00;97040.75;5034340;28;20731;-66
2023/06/07 09:05:20;;;;;;;7.10;6.70;;;;;;;20.74;100.00;97035.72;5051642;28;20218;-63
2023/06/07 09:07:49;;;;;;;9.03;8.40;;;;;;;20.72;100.00;97043.22;5052726;28;20207;-66
2023/06/07 09:10:18;;;;;;;9.17;8.43;;;;;;;20.62;100.00;97027.78;5029833;28;20371;-64
2023/06/07 09:12:46;;;;;;;8.30;7.77;;;;;;;20.76;100.00;97030.88;4997331;28;20424;-67
2023/06/07 09:15:17;;;;;;;8.00;7.47;;;;;;;21.13;100.00;97037.44;5028740;28;20711;-65
2023/06/07 09:17:55;;;;;;;8.00;7.50;;;;;;;21.22;100.00;97035.09;5053455;28;20211;-64
2023/06/07 09:20:25;;;;;;;7.50;7.10;;;;;;;21.27;100.00;97042.41;5040130;28;20278;-64
2023/06/07 09:23:02;;;;;;;7.20;6.80;;;;;;;21.27;100.00;97039.72;5042313;28;20326;-64
2023/06/07 09:25:31;;;;;;;8.10;7.50;;;;;;;20.92;100.00;97036.44;5056135;28;20223;-66
2023/06/07 09:27:58;;;;;;;7.20;6.70;;;;;;;20.75;100.00;97026.56;4977752;28;20211;-64
2023/06/07 09:30:26;;;;;;;7.30;6.90;;;;;;;20.50;100.00;97035.19;5044495;28;20904;-64
2023/06/07 09:32:54;;;;;;;7.30;6.80;;;;;;;20.37;100.00;97033.69;5046279;28;20350;-64
2023/06/07 09:35:23;;;;;;;6.73;6.33;;;;;;;20.21;100.00;97030.00;5042063;28;20223;-64
2023/06/07 09:37:52;;;;;;;6.60;6.20;;;;;;;20.12;100.00;97028.81;5050420;28;20299;-65
2023/06/07 09:40:23;;;;;;;7.30;6.70;;;;;;;20.46;100.00;97034.06;5029742;28;20276;-64
2023/06/07 09:42:58;;;;;;;6.37;5.90;;;;;;;20.99;100.00;97026.25;4997043;28;20699;-66
2023/06/07 09:45:26;;;;;;;6.53;6.13;;;;;;;21.31;100.00;97028.16;5030034;28;20341;-64
2023/06/07 09:48:04;;;;;;;7.00;6.50;;;;;;;21.68;100.00;97034.66;5053224;28;20203;-66
2023/06/07 09:50:32;;;;;;;6.80;6.40;;;;;;;21.81;100.00;97031.50;5054277;28;20300;-66
2023/06/07 09:53:01;;;;;;;7.33;6.90;;;;;;;21.37;100.00;97026.31;5047335;28;20226;-65
2023/06/07 09:55:31;;;;;;;7.10;6.60;;;;;;;21.28;100.00;97027.88;5031688;28;20300;-64
2023/06/07 09:57:59;;;;;;;7.33;6.93;;;;;;;20.96;100.00;97033.00;5023517;28;20278;-64
2023/06/07 10:00:27;;;;;;;7.53;6.83;;;;;;;21.20;100.00;97026.47;5014726;28;20219;-64
2023/06/07 10:03:05;;;;;;;7.00;6.50;;;;;;;21.69;100.00;97029.00;5051648;28;20222;-68
2023/06/07 10:05:34;;;;;;;6.57;6.17;;;;;;;22.01;100.00;97026.50;5032761;28;20302;-65
2023/06/07 10:08:02;;;;;;;7.37;6.77;;;;;;;22.22;100.00;97014.72;5044884;28;20253;-66
2023/06/07 10:10:31;;;;;;;6.90;6.40;;;;;;;22.01;97.62;97024.63;5030701;28;20299;-65
2023/06/07 10:12:59;;;;;;;7.03;6.43;;;;;;;21.83;97.14;97017.78;5048237;28;20306;-66
2023/06/07 10:15:29;;;;;;;6.07;5.77;;;;;;;21.75;97.76;97019.06;5000283;28;20235;-65
2023/06/07 10:18:01;;;;;;;6.97;6.57;;;;;;;21.69;100.00;97012.03;5030989;28;20211;-66
2023/06/07 10:20:30;;;;;;;6.53;6.17;;;;;;;21.46;99.08;97014.00;5051981;28;20284;-63
2023/06/07 10:23:03;;;;;;;6.60;6.10;;;;;;;21.29;100.00;97014.13;5046662;28;20671;-67
2023/06/07 10:25:37;;;;;;;6.43;6.03;;;;;;;20.95;100.00;97014.38;5028426;28;20809;-64
2023/06/07 10:28:11;;;;;;;5.93;5.63;;;;;;;21.16;100.00;97014.56;5038918;28;20314;-64
2023/06/07 10:30:43;;;;;;;5.60;5.30;;;;;;;21.27;99.64;97007.41;5001098;28;20315;-65
2023/06/07 10:33:11;;;;;;;6.20;5.80;;;;;;;21.93;95.14;97009.75;5024040;28;20349;-65
2023/06/07 10:35:39;;;;;;;6.30;5.83;;;;;;;22.32;91.85;97003.13;5032625;28;20218;-64
2023/06/07 10:38:08;;;;;;;5.97;5.57;;;;;;;22.52;90.84;97001.63;5048186;28;20525;-65
2023/06/07 10:40:37;;;;;;;6.63;6.10;;;;;;;22.79;86.05;97001.41;5034477;28;20224;-65
2023/06/07 10:43:05;;;;;;;5.30;5.00;;;;;;;23.17;83.12;96998.47;5041710;28;20226;-65
2023/06/07 10:45:32;;;;;;;5.57;5.27;;;;;;;23.76;74.62;96996.25;5000468;28;20376;-65
2023/06/07 10:48:34;;;;;;;5.50;5.20;;;;;;;23.50;78.14;96998.22;5028357;28;20234;-66
2023/06/07 10:51:02;;;;;;;5.87;5.47;;;;;;;23.49;78.54;96993.88;5028530;28;20214;-66
2023/06/07 10:53:49;;;;;;;5.73;5.43;;;;;;;23.51;78.87;96991.72;5047311;28;20314;-64
2023/06/07 10:56:31;;;;;;;5.70;5.30;;;;;;;23.36;79.55;96982.56;5027329;28;20210;-67
2023/06/07 10:59:19;;;;;;;6.47;5.97;;;;;;;23.49;80.57;96994.72;5046556;28;20244;-67
2023/06/07 11:01:49;;;;;;;6.20;5.80;;;;;;;23.49;77.51;96989.31;5000557;28;20310;-66
2023/06/07 11:04:50;;;;;;;5.40;5.10;;;;;;;23.95;75.69;96984.88;5030321;28;20214;-66
2023/06/07 11:07:20;;;;;;;5.93;5.60;;;;;;;24.33;77.42;96982.56;5038663;28;20355;-66
2023/06/07 11:09:49;;;;;;;4.80;4.50;;;;;;;24.35;71.41;96984.97;5052661;28;20679;-66
2023/06/07 11:12:50;;;;;;;5.37;5.07;;;;;;;24.56;69.34;96985.69;5029561;28;20289;-66
2023/06/07 11:15:25;;;;;;;5.23;4.70;;;;;;;24.99;63.80;96971.63;5043984;28;20910;-66
2023/06/07 11:17:54;;;;;;;5.20;4.83;;;;;;;24.85;61.30;96966.84;5000425;28;20319;-66
2023/06/07 11:20:52;;;;;;;5.33;5.00;;;;;;;24.81;65.48;96962.25;5032719;28;20210;-66
2023/06/07 11:23:27;;;;;;;4.97;4.70;;;;;;;25.25;60.30;96969.50;5041865;28;20199;-65